Caro — A8VK5 — position and weather

sailwx.info

Track history (hours):
 
Tides and Currents Weather Stations Pressure Air Temp Water Temp Dewpoint Dewpoint Depression Visibility Wind Speed Wind Dir Waves Ship Positions

Caro

Last reported at 2018-Jan-06 05:48 UTC. Time now 2018-Feb-23 00:24 UTC.
Position N 38°03' W 033°20'.
Warning: this ship's position is 47 days out of date.

Length 292 m; draft 10.5 m.

Type: Ship. MMSI: 636092016.

Date/timePositionNaut miles runAvg speedWind from/ knotsBaromVisibWave heightAir tempDewpointWater temp
2018-Jan-06 05:48N 38°03' W 033°20'4412.6
2018-Jan-06 02:17N 37°50' W 032°26'512.7
2018-Jan-06 01:55N 37°48' W 032°21'512.7
2018-Jan-06 01:30N 37°47' W 032°14'912.9
2018-Jan-06 00:48N 37°44' W 032°03'412.6
2018-Jan-06 00:29N 37°43' W 031°59'612.2
2018-Jan-06 00:00N 37°42' W 031°51'812.7
2018-Jan-05 23:24N 37°40' W 031°42'3711.7
2018-Jan-05 20:14N 37°29' W 030°57'311.3
2018-Jan-05 20:00N 37°28' W 030°54'6711.5
2018-Jan-05 14:10N 37°07' W 029°34'2011.9
2018-Jan-05 12:30N 37°02' W 029°10'14211.9
2018-Jan-05 00:31N 36°20' W 026°20'112.6
2018-Jan-05 00:28N 36°20' W 026°19'612.6
2018-Jan-05 00:00N 36°18' W 026°12'612.4
2018-Jan-04 23:30N 36°16' W 026°05'612.5
2018-Jan-04 23:01N 36°15' W 025°58'612.5
2018-Jan-04 22:30N 36°13' W 025°50'612.4
2018-Jan-04 22:00N 36°11' W 025°43'612.3
2018-Jan-04 21:30N 36°09' W 025°36'612.5
2018-Jan-04 21:00N 36°07' W 025°28'612.6
2018-Jan-04 20:31N 36°05' W 025°21'612.2
2018-Jan-04 20:00N 36°03' W 025°14'612.2
2018-Jan-04 19:30N 36°01' W 025°07'612.3
2018-Jan-04 19:01N 35°59' W 024°59'612.4
2018-Jan-04 18:30N 35°60' W 024°52'612.2
2018-Jan-04 18:00N 35°60' W 024°44'612.5
2018-Jan-04 17:30N 35°60' W 024°36'612.4
2018-Jan-04 17:00N 35°60' W 024°29'612.2
2018-Jan-04 16:31N 35°60' W 024°21'612.0
2018-Jan-04 16:00N 35°60' W 024°14'612.1
2018-Jan-04 15:30N 36°00' W 024°06'612.2
2018-Jan-04 15:00N 35°60' W 023°59'22912.4
2018-Jan-03 20:30N 35°59' W 019°16'1712.9
2018-Jan-03 19:11N 35°59' W 018°55'212.9
2018-Jan-03 19:00N 35°59' W 018°52'613.1
2018-Jan-03 18:30N 35°59' W 018°44'712.9
2018-Jan-03 17:58N 35°59' W 018°35'21313.2
2018-Jan-03 01:51N 35°59' W 014°12'412.6
2018-Jan-03 01:30N 35°59' W 014°07'612.3
2018-Jan-03 01:00N 35°59' W 013°59'612.7
2018-Jan-03 00:30N 35°59' W 013°51'713.2
2018-Jan-02 23:59N 35°59' W 013°43'1313.0
2018-Jan-02 22:58N 35°59' W 013°26'1612.9
2018-Jan-02 21:45N 35°59' W 013°07'14312.6
2018-Jan-02 10:23N 35°58' W 010°10'1212.3
2018-Jan-02 09:25N 35°58' W 009°55'1212.4
2018-Jan-02 08:27N 35°58' W 009°40'612.1
2018-Jan-02 07:59N 35°58' W 009°34'612.4
2018-Jan-02 07:30N 35°58' W 009°26'19611.9
2018-Jan-01 15:00N 36°04' W 005°24'3 6.4
2018-Jan-01 14:30N 36°06' W 005°21'0 0.4
2018-Jan-01 13:55N 36°07' W 005°21'0 0.1
2018-Jan-01 13:28N 36°07' W 005°21'0 0.1
2018-Jan-01 09:52N 36°06' W 005°21'0 0.4
2018-Jan-01 09:31N 36°06' W 005°22'0 0.0
2018-Jan-01 07:01N 36°06' W 005°22'0 0.1
2018-Jan-01 06:58N 36°06' W 005°22'0 0.0
2018-Jan-01 06:01N 36°06' W 005°22'0 0.1
2018-Jan-01 05:25N 36°06' W 005°22'0 0.1
2018-Jan-01 04:43N 36°06' W 005°21'0 0.1
2018-Jan-01 02:49N 36°06' W 005°21'0 0.0
2018-Jan-01 02:31N 36°06' W 005°21'0 0.0
2018-Jan-01 00:04N 36°06' W 005°21'0 0.0
2017-Dec-31 19:13N 36°06' W 005°22'0 0.1
2017-Dec-31 19:01N 36°06' W 005°22'0 0.1
2017-Dec-31 14:12N 36°06' W 005°21'0 0.5
2017-Dec-31 13:46N 36°06' W 005°21'1 3.1
2017-Dec-31 13:30N 36°06' W 005°22'2 3.7
2017-Dec-31 13:00N 36°05' W 005°20'2 4.9
2017-Dec-31 12:29N 36°04' W 005°17'8 1.3
2017-Dec-31 06:38N 36°06' W 005°08'0 1.3
2017-Dec-31 06:24N 36°06' W 005°08'0 0.9
2017-Dec-31 05:58N 36°06' W 005°09'0 0.1
2017-Dec-31 05:26N 36°06' W 005°09'  
2017-Dec-27 21:31N 36°31' E 013°47'010.1
2017-Dec-27 21:30N 36°31' E 013°47'5 9.8
2017-Dec-27 20:56N 36°29' E 013°53'4 9.2
2017-Dec-27 20:29N 36°27' E 013°58'5 9.0
2017-Dec-27 19:59N 36°25' E 014°03'4 8.6
2017-Dec-27 19:30N 36°24' E 014°08'510.0
2017-Dec-27 19:00N 36°22' E 014°14'510.8
2017-Dec-27 18:30N 36°20' E 014°20'611.6
2017-Dec-27 18:00N 36°18' E 014°27'612.2
2017-Dec-27 17:30N 36°15' E 014°34'612.7
2017-Dec-27 17:00N 36°13' E 014°41'  
Track history (hours):
 
Tides and Currents Weather Stations Pressure Air Temp Water Temp Dewpoint Dewpoint Depression Visibility Wind Speed Wind Dir Waves Ship Positions

Caro

Last reported at 2018-Jan-06 05:48 UTC. Time now 2018-Feb-23 00:24 UTC.
Position N 38°03' W 033°20'.
Warning: this ship's position is 47 days out of date.

Length 292 m; draft 10.5 m.

Type: Ship. MMSI: 636092016.

Date/timePositionNaut miles runAvg speedWind from/ knotsBaromVisibWave heightAir tempDewpointWater temp
2018-Jan-06 05:48N 38°03' W 033°20'4412.6
2018-Jan-06 02:17N 37°50' W 032°26'512.7
2018-Jan-06 01:55N 37°48' W 032°21'512.7
2018-Jan-06 01:30N 37°47' W 032°14'912.9
2018-Jan-06 00:48N 37°44' W 032°03'412.6
2018-Jan-06 00:29N 37°43' W 031°59'612.2
2018-Jan-06 00:00N 37°42' W 031°51'812.7
2018-Jan-05 23:24N 37°40' W 031°42'3711.7
2018-Jan-05 20:14N 37°29' W 030°57'311.3
2018-Jan-05 20:00N 37°28' W 030°54'6711.5
2018-Jan-05 14:10N 37°07' W 029°34'2011.9
2018-Jan-05 12:30N 37°02' W 029°10'14211.9
2018-Jan-05 00:31N 36°20' W 026°20'112.6
2018-Jan-05 00:28N 36°20' W 026°19'612.6
2018-Jan-05 00:00N 36°18' W 026°12'612.4
2018-Jan-04 23:30N 36°16' W 026°05'612.5
2018-Jan-04 23:01N 36°15' W 025°58'612.5
2018-Jan-04 22:30N 36°13' W 025°50'612.4
2018-Jan-04 22:00N 36°11' W 025°43'612.3
2018-Jan-04 21:30N 36°09' W 025°36'612.5
2018-Jan-04 21:00N 36°07' W 025°28'612.6
2018-Jan-04 20:31N 36°05' W 025°21'612.2
2018-Jan-04 20:00N 36°03' W 025°14'612.2
2018-Jan-04 19:30N 36°01' W 025°07'612.3
2018-Jan-04 19:01N 35°59' W 024°59'612.4
2018-Jan-04 18:30N 35°60' W 024°52'612.2
2018-Jan-04 18:00N 35°60' W 024°44'612.5
2018-Jan-04 17:30N 35°60' W 024°36'612.4
2018-Jan-04 17:00N 35°60' W 024°29'612.2
2018-Jan-04 16:31N 35°60' W 024°21'612.0
2018-Jan-04 16:00N 35°60' W 024°14'612.1
2018-Jan-04 15:30N 36°00' W 024°06'612.2
2018-Jan-04 15:00N 35°60' W 023°59'22912.4
2018-Jan-03 20:30N 35°59' W 019°16'1712.9
2018-Jan-03 19:11N 35°59' W 018°55'212.9
2018-Jan-03 19:00N 35°59' W 018°52'613.1
2018-Jan-03 18:30N 35°59' W 018°44'712.9
2018-Jan-03 17:58N 35°59' W 018°35'21313.2
2018-Jan-03 01:51N 35°59' W 014°12'412.6
2018-Jan-03 01:30N 35°59' W 014°07'612.3
2018-Jan-03 01:00N 35°59' W 013°59'612.7
2018-Jan-03 00:30N 35°59' W 013°51'713.2
2018-Jan-02 23:59N 35°59' W 013°43'1313.0
2018-Jan-02 22:58N 35°59' W 013°26'1612.9
2018-Jan-02 21:45N 35°59' W 013°07'14312.6
2018-Jan-02 10:23N 35°58' W 010°10'1212.3
2018-Jan-02 09:25N 35°58' W 009°55'1212.4
2018-Jan-02 08:27N 35°58' W 009°40'612.1
2018-Jan-02 07:59N 35°58' W 009°34'612.4
2018-Jan-02 07:30N 35°58' W 009°26'19611.9
2018-Jan-01 15:00N 36°04' W 005°24'3 6.4
2018-Jan-01 14:30N 36°06' W 005°21'0 0.4
2018-Jan-01 13:55N 36°07' W 005°21'0 0.1
2018-Jan-01 13:28N 36°07' W 005°21'0 0.1
2018-Jan-01 09:52N 36°06' W 005°21'0 0.4
2018-Jan-01 09:31N 36°06' W 005°22'0 0.0
2018-Jan-01 07:01N 36°06' W 005°22'0 0.1
2018-Jan-01 06:58N 36°06' W 005°22'0 0.0
2018-Jan-01 06:01N 36°06' W 005°22'0 0.1
2018-Jan-01 05:25N 36°06' W 005°22'0 0.1
2018-Jan-01 04:43N 36°06' W 005°21'0 0.1
2018-Jan-01 02:49N 36°06' W 005°21'0 0.0
2018-Jan-01 02:31N 36°06' W 005°21'0 0.0
2018-Jan-01 00:04N 36°06' W 005°21'0 0.0
2017-Dec-31 19:13N 36°06' W 005°22'0 0.1
2017-Dec-31 19:01N 36°06' W 005°22'0 0.1
2017-Dec-31 14:12N 36°06' W 005°21'0 0.5
2017-Dec-31 13:46N 36°06' W 005°21'1 3.1
2017-Dec-31 13:30N 36°06' W 005°22'2 3.7
2017-Dec-31 13:00N 36°05' W 005°20'2 4.9
2017-Dec-31 12:29N 36°04' W 005°17'8 1.3
2017-Dec-31 06:38N 36°06' W 005°08'0 1.3
2017-Dec-31 06:24N 36°06' W 005°08'0 0.9
2017-Dec-31 05:58N 36°06' W 005°09'0 0.1
2017-Dec-31 05:26N 36°06' W 005°09'  
2017-Dec-27 21:31N 36°31' E 013°47'010.1
2017-Dec-27 21:30N 36°31' E 013°47'5 9.8
2017-Dec-27 20:56N 36°29' E 013°53'4 9.2
2017-Dec-27 20:29N 36°27' E 013°58'5 9.0
2017-Dec-27 19:59N 36°25' E 014°03'4 8.6
2017-Dec-27 19:30N 36°24' E 014°08'510.0
2017-Dec-27 19:00N 36°22' E 014°14'510.8
2017-Dec-27 18:30N 36°20' E 014°20'611.6
2017-Dec-27 18:00N 36°18' E 014°27'612.2
2017-Dec-27 17:30N 36°15' E 014°34'612.7
2017-Dec-27 17:00N 36°13' E 014°41'  

Dump ship's entire track history